createdAt,value
2017-08-28T00:00:22.560Z,91.80
2017-08-28T00:02:50.067Z,91.60
2017-08-28T00:05:17.578Z,91.70
2017-08-28T00:07:45.088Z,91.60
2017-08-28T00:10:12.563Z,91.10
2017-08-28T00:12:40.073Z,91.00
2017-08-28T00:15:07.560Z,90.80
2017-08-28T00:17:35.064Z,90.70
2017-08-28T00:20:02.544Z,90.60
2017-08-28T00:22:30.048Z,90.50
2017-08-28T00:24:57.541Z,90.30
2017-08-28T00:27:25.044Z,90.00
2017-08-28T00:29:52.527Z,90.10
2017-08-28T00:32:20.033Z,89.60
2017-08-28T00:34:47.520Z,90.30
2017-08-28T00:37:15.000Z,89.50
2017-08-28T00:39:42.504Z,89.80
2017-08-28T00:42:09.984Z,89.40
2017-08-28T00:44:37.492Z,89.70
2017-08-28T00:47:04.978Z,89.60
2017-08-28T00:49:32.485Z,89.10
2017-08-28T00:51:59.972Z,88.90
2017-08-28T00:54:27.476Z,88.80
2017-08-28T00:56:55.725Z,88.50
2017-08-28T00:59:23.231Z,88.40
2017-08-28T01:01:50.725Z,88.80
2017-08-28T01:04:18.244Z,88.50
2017-08-28T01:06:45.728Z,88.50
2017-08-28T01:09:13.227Z,88.10
2017-08-28T01:11:40.703Z,88.20
2017-08-28T01:14:08.212Z,88.40
2017-08-28T01:16:35.697Z,87.70
2017-08-28T01:19:03.195Z,88.10
2017-08-28T01:21:30.672Z,88.50
2017-08-28T01:23:58.171Z,88.70
2017-08-28T01:26:25.652Z,88.20
2017-08-28T01:28:53.146Z,88.10
2017-08-28T01:31:20.623Z,88.00
2017-08-28T01:33:48.125Z,87.60
2017-08-28T01:36:15.603Z,87.70
2017-08-28T01:38:43.088Z,87.30
2017-08-28T01:41:10.593Z,87.00
2017-08-28T01:43:38.072Z,86.70
2017-08-28T01:46:05.580Z,86.70
2017-08-28T01:48:33.055Z,86.70
2017-08-28T01:51:00.556Z,86.60
2017-08-28T01:53:28.032Z,86.30
2017-08-28T01:55:55.523Z,87.00
2017-08-28T01:58:23.003Z,86.60
2017-08-28T02:00:50.500Z,86.60
2017-08-28T02:03:17.977Z,87.50
2017-08-28T02:05:45.476Z,86.40
2017-08-28T02:08:12.948Z,86.50
2017-08-28T02:10:40.448Z,86.30
2017-08-28T02:13:07.924Z,86.40
2017-08-28T02:15:35.424Z,86.40
2017-08-28T02:18:02.910Z,86.20
2017-08-28T02:20:30.413Z,85.90
2017-08-28T02:22:57.892Z,86.00
2017-08-28T02:25:25.400Z,85.90
2017-08-28T02:27:52.884Z,85.50
2017-08-28T02:30:20.385Z,85.80
2017-08-28T02:32:47.867Z,85.30
2017-08-28T02:35:15.381Z,85.30
2017-08-28T02:37:42.881Z,84.80
2017-08-28T02:40:10.467Z,84.70
2017-08-28T02:42:37.968Z,84.90
2017-08-28T02:45:05.450Z,85.10
2017-08-28T02:47:32.944Z,84.90
2017-08-28T02:50:00.420Z,84.80
2017-08-28T02:52:27.915Z,85.00
2017-08-28T02:54:55.403Z,85.30
2017-08-28T02:57:22.908Z,85.70
2017-08-28T02:59:50.387Z,85.80
2017-08-28T03:02:17.896Z,85.90
2017-08-28T03:04:45.379Z,85.70
2017-08-28T03:07:12.876Z,86.00
2017-08-28T03:09:40.366Z,87.20
2017-08-28T03:12:07.869Z,86.40
2017-08-28T03:14:35.348Z,86.40
2017-08-28T03:17:02.851Z,86.40
2017-08-28T03:19:30.332Z,86.30
2017-08-28T03:21:57.832Z,86.40
2017-08-28T03:24:25.307Z,86.20
2017-08-28T03:26:52.903Z,86.50
2017-08-28T03:29:20.379Z,86.70
2017-08-28T03:31:47.881Z,86.50
2017-08-28T03:34:15.364Z,86.60
2017-08-28T03:36:42.864Z,85.90
2017-08-28T03:39:10.364Z,86.10
2017-08-28T03:41:37.836Z,86.70
2017-08-28T03:44:05.331Z,87.10
2017-08-28T03:46:32.815Z,86.90
2017-08-28T03:49:00.311Z,86.90
2017-08-28T03:51:27.788Z,86.90
2017-08-28T03:53:55.315Z,86.60
2017-08-28T03:56:22.784Z,86.60
2017-08-28T03:58:50.280Z,86.80
2017-08-28T04:01:17.769Z,86.70
2017-08-28T04:03:45.260Z,86.80
2017-08-28T04:06:12.741Z,86.90
2017-08-28T04:08:40.245Z,87.10
2017-08-28T04:11:07.720Z,87.20
2017-08-28T04:13:35.219Z,87.20
2017-08-28T04:16:02.695Z,87.20
2017-08-28T04:18:30.192Z,87.60
2017-08-28T04:20:57.670Z,87.80
2017-08-28T04:23:25.176Z,87.90
2017-08-28T04:25:52.647Z,87.80
2017-08-28T04:28:20.152Z,88.20
2017-08-28T04:30:47.636Z,88.20
2017-08-28T04:33:15.131Z,88.40
2017-08-28T04:35:42.626Z,88.40
2017-08-28T04:38:10.104Z,88.60
2017-08-28T04:40:37.601Z,88.10
2017-08-28T04:43:05.083Z,87.80
2017-08-28T04:45:32.591Z,87.80
2017-08-28T04:48:00.067Z,88.20
2017-08-28T04:50:27.568Z,89.10
2017-08-28T04:52:55.045Z,88.50
2017-08-28T04:55:22.536Z,88.40
2017-08-28T04:57:50.013Z,88.30
2017-08-28T05:00:17.512Z,88.10
2017-08-28T05:02:44.991Z,88.40
2017-08-28T05:05:12.487Z,88.40
2017-08-28T05:07:40.965Z,88.80
2017-08-28T05:10:08.464Z,89.10
2017-08-28T05:12:35.940Z,89.00
2017-08-28T05:15:03.440Z,89.50
2017-08-28T05:17:30.920Z,89.50
2017-08-28T05:19:58.427Z,89.50
2017-08-28T05:22:25.916Z,89.10
2017-08-28T05:24:53.422Z,88.90
2017-08-28T05:27:20.895Z,89.20
2017-08-28T05:29:48.392Z,89.40
2017-08-28T05:32:15.885Z,89.20
2017-08-28T05:34:43.392Z,89.00
2017-08-28T05:37:10.877Z,89.20
2017-08-28T05:39:38.352Z,88.70
2017-08-28T05:42:05.857Z,88.60
2017-08-28T05:44:33.336Z,88.30
2017-08-28T05:47:00.831Z,88.30
2017-08-28T05:49:28.299Z,88.40
2017-08-28T05:51:55.788Z,88.40
2017-08-28T05:54:23.263Z,88.40
2017-08-28T05:56:50.761Z,88.70
2017-08-28T05:59:18.240Z,88.40
2017-08-28T06:01:45.728Z,88.40
2017-08-28T06:04:13.223Z,89.10
2017-08-28T06:06:40.726Z,88.90
2017-08-28T06:09:08.224Z,89.20
2017-08-28T06:11:35.724Z,89.30
2017-08-28T06:14:03.209Z,89.30
2017-08-28T06:16:30.703Z,89.40
2017-08-28T06:18:58.179Z,89.80
2017-08-28T06:21:25.676Z,89.80
2017-08-28T06:23:53.156Z,89.80
2017-08-28T06:26:20.651Z,89.70
2017-08-28T06:28:48.134Z,90.00
2017-08-28T06:31:15.627Z,89.50
2017-08-28T06:33:43.102Z,89.50
2017-08-28T06:36:10.608Z,89.60
2017-08-28T06:38:38.093Z,89.20
2017-08-28T06:41:05.575Z,88.50
2017-08-28T06:43:33.077Z,88.10
2017-08-28T06:46:00.560Z,88.20
2017-08-28T06:48:28.056Z,87.40
2017-08-28T06:50:55.539Z,87.00
2017-08-28T06:53:23.035Z,86.30
2017-08-28T06:55:50.515Z,85.80
2017-08-28T06:58:18.015Z,84.30
2017-08-28T07:00:45.501Z,81.80
2017-08-28T07:03:13.000Z,80.70
2017-08-28T07:05:40.488Z,78.90
2017-08-28T07:08:07.992Z,77.00
2017-08-28T07:10:35.475Z,74.90
2017-08-28T07:13:02.972Z,73.30
2017-08-28T07:15:30.456Z,73.60
2017-08-28T07:17:57.952Z,73.40
2017-08-28T07:20:25.431Z,72.90
2017-08-28T07:22:52.928Z,72.50
2017-08-28T07:25:20.411Z,72.10
2017-08-28T07:27:47.915Z,71.80
2017-08-28T07:30:15.392Z,71.90
2017-08-28T07:32:42.888Z,71.80
2017-08-28T07:35:10.368Z,72.60
2017-08-28T07:37:37.888Z,73.60
2017-08-28T07:40:05.379Z,73.70
2017-08-28T07:42:32.863Z,74.40
2017-08-28T07:45:00.367Z,74.40
2017-08-28T07:47:27.844Z,75.20
2017-08-28T07:49:55.354Z,74.80
2017-08-28T07:52:22.835Z,75.20
2017-08-28T07:54:50.339Z,74.80
2017-08-28T07:57:17.819Z,74.90
2017-08-28T07:59:45.328Z,73.70
2017-08-28T08:02:12.803Z,74.00
2017-08-28T08:04:40.304Z,73.40
2017-08-28T08:07:07.784Z,73.10
2017-08-28T08:09:35.286Z,74.00
2017-08-28T08:12:02.772Z,73.10
2017-08-28T08:14:30.268Z,73.40
2017-08-28T08:16:57.740Z,72.70
2017-08-28T08:19:25.238Z,73.00
2017-08-28T08:21:52.729Z,72.80
2017-08-28T08:24:20.227Z,72.70
2017-08-28T08:26:47.704Z,71.80
2017-08-28T08:29:15.205Z,72.30
2017-08-28T08:31:42.696Z,72.20
2017-08-28T08:34:15.905Z,71.60
2017-08-28T08:36:43.385Z,72.50
2017-08-28T08:39:10.902Z,73.50
2017-08-28T08:41:38.393Z,72.80
2017-08-28T08:44:05.875Z,74.10
2017-08-28T08:46:33.368Z,73.50
2017-08-28T08:49:00.844Z,72.60
2017-08-28T08:51:28.348Z,71.10
2017-08-28T08:53:55.824Z,71.40
2017-08-28T08:56:23.335Z,71.90
2017-08-28T08:58:50.805Z,72.30
2017-08-28T09:01:18.304Z,73.60
2017-08-28T09:03:45.785Z,72.00
2017-08-28T09:06:13.284Z,71.30
2017-08-28T09:08:40.759Z,70.90
2017-08-28T09:11:08.256Z,70.70
2017-08-28T09:13:35.740Z,70.80
2017-08-28T09:16:03.236Z,71.30
2017-08-28T09:18:30.715Z,70.50
2017-08-28T09:20:58.217Z,70.90
2017-08-28T09:23:25.704Z,71.70
2017-08-28T09:25:53.224Z,70.70
2017-08-28T09:28:20.712Z,70.80
2017-08-28T09:30:48.201Z,71.70
2017-08-28T09:33:15.703Z,70.50
2017-08-28T09:35:43.196Z,71.60
2017-08-28T09:38:10.712Z,70.40
2017-08-28T09:40:38.210Z,70.60
2017-08-28T09:43:05.720Z,69.90
2017-08-28T09:45:33.200Z,69.90
2017-08-28T09:48:00.696Z,69.70
2017-08-28T09:50:28.175Z,68.40
2017-08-28T09:52:55.672Z,68.80
2017-08-28T09:55:23.151Z,69.30
2017-08-28T09:57:50.654Z,69.20
2017-08-28T10:00:18.134Z,69.90
2017-08-28T10:02:45.633Z,68.90
2017-08-28T10:05:13.111Z,68.60
2017-08-28T10:07:40.617Z,68.40
2017-08-28T10:10:08.088Z,67.90
2017-08-28T10:12:35.585Z,67.40
2017-08-28T10:15:03.060Z,68.20
2017-08-28T10:17:30.557Z,68.10
2017-08-28T10:19:58.043Z,67.00
2017-08-28T10:22:25.540Z,66.50
2017-08-28T10:24:53.012Z,66.60
2017-08-28T10:27:19.992Z,66.90
2017-08-28T10:29:47.488Z,66.40
2017-08-28T10:32:14.972Z,66.40
2017-08-28T10:34:42.469Z,64.60
2017-08-28T10:37:09.956Z,65.50
2017-08-28T10:39:37.453Z,64.40
2017-08-28T10:42:04.932Z,64.60
2017-08-28T10:44:32.432Z,64.30
2017-08-28T10:46:59.911Z,65.00
2017-08-28T10:49:27.404Z,62.90
2017-08-28T10:51:54.879Z,64.70
2017-08-28T10:54:22.388Z,63.30
2017-08-28T10:56:49.872Z,63.30
2017-08-28T10:59:17.377Z,62.00
2017-08-28T11:01:44.864Z,62.80
2017-08-28T11:04:12.681Z,63.10
2017-08-28T11:06:40.168Z,64.40
2017-08-28T11:09:07.676Z,63.00
2017-08-28T11:11:35.159Z,62.80
2017-08-28T11:14:02.656Z,63.00
2017-08-28T11:16:30.142Z,63.40
2017-08-28T11:18:57.644Z,62.90
2017-08-28T11:21:25.144Z,63.80
2017-08-28T11:23:52.624Z,63.10
2017-08-28T11:26:20.120Z,63.30
2017-08-28T11:28:47.601Z,63.70
2017-08-28T11:31:15.111Z,63.00
2017-08-28T11:33:42.603Z,64.00
2017-08-28T11:36:10.108Z,64.00
2017-08-28T11:38:37.596Z,64.60
2017-08-28T11:41:05.109Z,63.80
2017-08-28T11:43:32.597Z,64.80
2017-08-28T11:46:00.110Z,65.90
2017-08-28T11:48:27.598Z,66.80
2017-08-28T11:50:55.097Z,66.60
2017-08-28T11:53:22.575Z,65.40
2017-08-28T11:55:50.078Z,65.30
2017-08-28T11:58:17.560Z,66.20
2017-08-28T12:00:45.064Z,65.90
2017-08-28T12:03:12.560Z,66.80
2017-08-28T12:05:40.064Z,66.60
2017-08-28T12:08:07.567Z,65.40
2017-08-28T12:10:35.067Z,65.50
2017-08-28T12:13:02.548Z,65.70
2017-08-28T12:15:30.047Z,66.20
2017-08-28T12:17:57.536Z,65.70
2017-08-28T12:20:25.048Z,65.70
2017-08-28T12:22:52.537Z,65.60
2017-08-28T12:25:20.037Z,65.50
2017-08-28T12:27:47.540Z,65.00
2017-08-28T12:30:15.030Z,64.00
2017-08-28T12:32:42.539Z,65.30
2017-08-28T12:35:10.031Z,66.10
2017-08-28T12:37:37.531Z,66.60
2017-08-28T12:40:05.012Z,67.10
2017-08-28T12:42:32.511Z,66.90
2017-08-28T12:44:59.999Z,66.90
2017-08-28T12:47:27.509Z,66.60
2017-08-28T12:49:54.999Z,66.40
2017-08-28T12:52:22.500Z,66.80
2017-08-28T12:54:49.996Z,66.60
2017-08-28T12:57:17.500Z,67.30
2017-08-28T12:59:44.980Z,67.40
2017-08-28T13:02:12.478Z,66.00
2017-08-28T13:04:40.735Z,66.90
2017-08-28T13:07:09.012Z,66.90
2017-08-28T13:09:36.497Z,66.90
2017-08-28T13:12:04.008Z,66.60
2017-08-28T13:14:31.501Z,66.40
2017-08-28T13:16:58.999Z,65.90
2017-08-28T13:19:26.488Z,66.00
2017-08-28T13:21:54.000Z,65.80
2017-08-28T13:24:21.493Z,66.00
2017-08-28T13:26:48.980Z,66.30
2017-08-28T13:29:16.504Z,66.10
2017-08-28T13:31:44.000Z,65.40
2017-08-28T13:34:11.498Z,65.90
2017-08-28T13:36:38.983Z,65.60
2017-08-28T13:39:06.480Z,65.60
2017-08-28T13:41:33.977Z,65.60
2017-08-28T13:44:01.481Z,65.80
2017-08-28T13:46:28.981Z,64.80
2017-08-28T13:48:56.491Z,65.80
2017-08-28T13:51:23.981Z,66.40
2017-08-28T13:53:51.484Z,65.80
2017-08-28T13:56:18.966Z,65.90
2017-08-28T13:58:46.472Z,66.30
2017-08-28T14:01:13.960Z,65.70
2017-08-28T14:03:41.468Z,66.50
2017-08-28T14:06:08.961Z,66.50
2017-08-28T14:08:36.470Z,65.40
2017-08-28T14:11:03.951Z,64.60
2017-08-28T14:13:31.460Z,64.80
2017-08-28T14:15:58.952Z,66.40
2017-08-28T14:18:26.452Z,66.50
2017-08-28T14:20:53.945Z,66.00
2017-08-28T14:23:21.449Z,66.30
2017-08-28T14:25:48.934Z,67.20
2017-08-28T14:28:16.424Z,66.90
2017-08-28T14:30:43.937Z,65.90
2017-08-28T14:33:11.424Z,66.60
2017-08-28T14:35:38.923Z,66.60
2017-08-28T14:38:06.424Z,66.50
2017-08-28T14:40:33.936Z,66.00
2017-08-28T14:43:01.420Z,65.90
2017-08-28T14:45:28.925Z,66.60
2017-08-28T14:47:56.407Z,65.50
2017-08-28T14:50:23.911Z,65.80
2017-08-28T14:52:51.400Z,65.80
2017-08-28T14:55:18.901Z,65.60
2017-08-28T14:57:46.392Z,65.00
2017-08-28T15:00:13.900Z,65.40
2017-08-28T15:02:41.384Z,65.00
2017-08-28T15:05:08.892Z,63.50
2017-08-28T15:07:36.378Z,64.00
2017-08-28T15:10:03.879Z,63.10
2017-08-28T15:12:31.352Z,64.40
2017-08-28T15:14:58.847Z,65.30
2017-08-28T15:17:26.328Z,65.90
2017-08-28T15:19:53.827Z,66.20
2017-08-28T15:22:21.307Z,66.40
2017-08-28T15:24:48.821Z,65.10
2017-08-28T15:27:16.319Z,63.90
2017-08-28T15:29:43.809Z,65.00
2017-08-28T15:32:11.319Z,65.10
2017-08-28T15:34:38.799Z,65.80
2017-08-28T15:37:06.292Z,66.30
2017-08-28T15:39:33.775Z,66.20
2017-08-28T15:42:01.285Z,67.30
2017-08-28T15:44:28.774Z,66.50
2017-08-28T15:46:56.301Z,66.80
2017-08-28T15:49:23.772Z,67.10
2017-08-28T15:51:51.273Z,66.50
2017-08-28T15:54:18.773Z,66.30
2017-08-28T15:56:46.289Z,66.20
2017-08-28T15:59:13.779Z,67.10
2017-08-28T16:01:41.269Z,67.60
2017-08-28T16:04:08.756Z,67.90
2017-08-28T16:06:36.264Z,67.60
2017-08-28T16:09:03.767Z,67.20
2017-08-28T16:11:31.296Z,66.80
2017-08-28T16:13:58.792Z,66.40
2017-08-28T16:16:26.300Z,65.70
2017-08-28T16:18:53.784Z,66.50
2017-08-28T16:21:21.317Z,65.90
2017-08-28T16:23:48.808Z,66.20
2017-08-28T16:26:16.320Z,66.00
2017-08-28T16:28:43.840Z,66.30
2017-08-28T16:31:11.332Z,65.60
2017-08-28T16:33:38.831Z,65.90
2017-08-28T16:36:06.324Z,66.60
2017-08-28T16:38:33.828Z,67.20
2017-08-28T16:41:01.311Z,67.50
2017-08-28T16:43:28.820Z,66.90
2017-08-28T16:45:56.304Z,66.60
2017-08-28T16:48:23.812Z,67.10
2017-08-28T16:50:51.300Z,67.00
2017-08-28T16:53:18.799Z,67.40
2017-08-28T16:55:46.288Z,67.30
2017-08-28T16:58:13.792Z,67.60
2017-08-28T17:00:41.276Z,67.60
2017-08-28T17:03:08.775Z,67.50
2017-08-28T17:05:36.256Z,67.60
2017-08-28T17:08:03.766Z,68.00
2017-08-28T17:10:31.263Z,68.10
2017-08-28T17:12:58.767Z,66.70
2017-08-28T17:15:26.243Z,66.90
2017-08-28T17:17:53.749Z,67.40
2017-08-28T17:20:21.224Z,68.00
2017-08-28T17:22:48.719Z,68.20
2017-08-28T17:25:16.208Z,68.20
2017-08-28T17:27:43.722Z,68.40
2017-08-28T17:30:11.218Z,68.10
2017-08-28T17:32:38.696Z,67.90
2017-08-28T17:35:06.201Z,68.00
2017-08-28T17:37:33.692Z,68.30
2017-08-28T17:40:01.199Z,68.20
2017-08-28T17:42:29.444Z,68.70
2017-08-28T17:44:56.948Z,68.60
2017-08-28T17:47:24.433Z,68.80
2017-08-28T17:49:51.931Z,69.10
2017-08-28T17:52:19.420Z,69.60
2017-08-28T17:54:46.924Z,70.00
2017-08-28T17:57:14.460Z,71.10
2017-08-28T17:59:41.962Z,72.60
2017-08-28T18:02:09.444Z,73.20
2017-08-28T18:04:36.948Z,73.90
2017-08-28T18:07:04.457Z,76.10
2017-08-28T18:09:31.968Z,76.50
2017-08-28T18:11:59.448Z,76.70
2017-08-28T18:14:26.957Z,77.50
2017-08-28T18:16:54.439Z,78.10
2017-08-28T18:19:21.940Z,78.90
2017-08-28T18:21:49.432Z,79.20
2017-08-28T18:24:16.940Z,79.10
2017-08-28T18:26:44.427Z,79.20
2017-08-28T18:29:11.912Z,79.50
2017-08-28T18:31:39.411Z,79.70
2017-08-28T18:34:06.902Z,79.70
2017-08-28T18:36:34.412Z,79.90
2017-08-28T18:39:01.903Z,80.00
2017-08-28T18:41:29.404Z,79.70
2017-08-28T18:43:56.896Z,79.90
2017-08-28T18:46:24.396Z,80.00
2017-08-28T18:48:51.876Z,80.30
2017-08-28T18:51:19.379Z,80.00
2017-08-28T18:53:46.868Z,79.90
2017-08-28T18:56:14.378Z,79.70
2017-08-28T18:58:41.859Z,80.00
2017-08-28T19:01:09.372Z,79.90
2017-08-28T19:03:36.861Z,79.90
2017-08-28T19:06:04.364Z,79.90
2017-08-28T19:08:31.892Z,79.70
2017-08-28T19:10:59.391Z,79.50
2017-08-28T19:13:26.884Z,79.30
2017-08-28T19:15:54.392Z,79.30
2017-08-28T19:18:21.883Z,79.70
2017-08-28T19:20:49.387Z,79.60
2017-08-28T19:23:16.872Z,79.40
2017-08-28T19:25:44.352Z,80.00
2017-08-28T19:28:11.864Z,80.20
2017-08-28T19:30:39.348Z,81.10
2017-08-28T19:33:06.857Z,81.40
2017-08-28T19:35:34.460Z,81.50
2017-08-28T19:38:01.968Z,81.30
2017-08-28T19:40:29.448Z,80.70
2017-08-28T19:42:56.953Z,80.80
2017-08-28T19:45:24.450Z,80.60
2017-08-28T19:47:51.957Z,80.40
2017-08-28T19:50:19.452Z,81.10
2017-08-28T19:52:46.961Z,80.50
2017-08-28T19:55:14.440Z,80.20
2017-08-28T19:57:42.681Z,80.20
2017-08-28T20:00:10.167Z,80.30
2017-08-28T20:02:43.428Z,80.50
2017-08-28T20:05:10.917Z,81.20
2017-08-28T20:07:38.416Z,80.80
2017-08-28T20:10:05.897Z,81.00
2017-08-28T20:12:33.403Z,80.20
2017-08-28T20:15:00.879Z,80.40
2017-08-28T20:17:28.392Z,80.70
2017-08-28T20:19:55.871Z,80.20
2017-08-28T20:22:23.376Z,80.30
2017-08-28T20:24:50.872Z,80.20
2017-08-28T20:27:18.401Z,80.40
2017-08-28T20:29:45.888Z,80.40
2017-08-28T20:32:13.376Z,80.50
2017-08-28T20:34:40.884Z,80.40
2017-08-28T20:37:08.368Z,80.50
2017-08-28T20:39:35.876Z,80.50
2017-08-28T20:42:03.361Z,80.20
2017-08-28T20:44:30.872Z,80.30
2017-08-28T20:46:58.351Z,80.10
2017-08-28T20:49:25.844Z,80.40
2017-08-28T20:51:53.331Z,80.20
2017-08-28T20:54:20.841Z,80.50
2017-08-28T20:56:48.336Z,80.90
2017-08-28T20:59:15.836Z,81.30
2017-08-28T21:01:43.319Z,81.30
2017-08-28T21:04:10.820Z,81.30
2017-08-28T21:06:38.312Z,80.80
2017-08-28T21:09:05.826Z,80.70
2017-08-28T21:11:33.319Z,80.90
2017-08-28T21:14:00.828Z,81.00
2017-08-28T21:16:28.312Z,81.20
2017-08-28T21:18:55.813Z,81.10
2017-08-28T21:21:23.305Z,81.70
2017-08-28T21:23:50.816Z,81.70
2017-08-28T21:26:18.313Z,81.60
2017-08-28T21:28:45.815Z,81.20
2017-08-28T21:31:13.307Z,81.90
2017-08-28T21:33:40.822Z,82.00
2017-08-28T21:36:08.320Z,81.70
2017-08-28T21:38:35.808Z,81.90
2017-08-28T21:41:03.321Z,82.10
2017-08-28T21:43:30.808Z,82.30
2017-08-28T21:45:58.316Z,82.80
2017-08-28T21:48:25.812Z,82.40
2017-08-28T21:50:53.324Z,82.50
2017-08-28T21:53:20.811Z,82.70
2017-08-28T21:55:48.315Z,82.70
2017-08-28T21:58:15.795Z,83.10
2017-08-28T22:00:43.301Z,83.50
2017-08-28T22:03:10.788Z,83.50
2017-08-28T22:05:38.297Z,83.50
2017-08-28T22:08:05.793Z,83.40
2017-08-28T22:10:33.295Z,83.50
2017-08-28T22:13:00.782Z,83.80
2017-08-28T22:15:28.294Z,84.00
2017-08-28T22:17:55.785Z,84.20
2017-08-28T22:20:23.299Z,84.00
2017-08-28T22:22:50.789Z,84.60
2017-08-28T22:25:18.291Z,84.80
2017-08-28T22:27:45.777Z,84.70
2017-08-28T22:30:13.292Z,84.50
2017-08-28T22:32:40.783Z,84.30
2017-08-28T22:35:08.271Z,84.60
2017-08-28T22:37:35.779Z,84.60
2017-08-28T22:40:03.267Z,84.80
2017-08-28T22:42:30.787Z,84.80
2017-08-28T22:44:58.280Z,84.90
2017-08-28T22:47:25.788Z,85.00
2017-08-28T22:49:53.290Z,84.90
2017-08-28T22:52:20.792Z,84.80
2017-08-28T22:54:48.284Z,84.80
2017-08-28T22:57:15.793Z,84.90
2017-08-28T22:59:43.288Z,84.80
2017-08-28T23:02:10.800Z,85.20
2017-08-28T23:04:38.288Z,85.70
2017-08-28T23:07:05.800Z,86.10
2017-08-28T23:09:33.284Z,86.60
2017-08-28T23:12:01.636Z,86.40
2017-08-28T23:14:29.123Z,86.50
2017-08-28T23:16:56.623Z,86.50
2017-08-28T23:19:24.103Z,86.60
2017-08-28T23:21:51.612Z,86.80
2017-08-28T23:24:19.097Z,86.90
2017-08-28T23:26:46.612Z,86.90
2017-08-28T23:29:14.104Z,86.90
2017-08-28T23:31:41.609Z,87.00
2017-08-28T23:34:09.115Z,87.40
2017-08-28T23:36:36.616Z,87.00
2017-08-28T23:39:04.144Z,87.00
2017-08-28T23:41:31.624Z,86.90
2017-08-28T23:43:59.131Z,86.90
2017-08-28T23:46:26.624Z,87.20
2017-08-28T23:48:54.136Z,87.10
2017-08-28T23:51:21.632Z,86.90
2017-08-28T23:53:49.148Z,86.80
2017-08-28T23:56:16.639Z,87.00
2017-08-28T23:58:44.145Z,87.30
